sensor_id;sensor_type;location;lat;lon;timestamp;temperature;humidity
10133;DHT22;5106;50.926;7.080;2023-12-29T00:01:16;10.20;96.50
10133;DHT22;5106;50.926;7.080;2023-12-29T00:03:41;10.20;96.50
10133;DHT22;5106;50.926;7.080;2023-12-29T00:06:07;10.20;96.50
10133;DHT22;5106;50.926;7.080;2023-12-29T00:08:33;10.20;96.50
10133;DHT22;5106;50.926;7.080;2023-12-29T00:10:59;10.20;96.50
10133;DHT22;5106;50.926;7.080;2023-12-29T00:13:25;10.20;96.50
10133;DHT22;5106;50.926;7.080;2023-12-29T00:15:55;10.20;96.50
10133;DHT22;5106;50.926;7.080;2023-12-29T00:18:23;10.20;96.50
10133;DHT22;5106;50.926;7.080;2023-12-29T00:20:49;10.20;96.50
10133;DHT22;5106;50.926;7.080;2023-12-29T00:23:15;10.20;96.50
10133;DHT22;5106;50.926;7.080;2023-12-29T00:25:40;10.20;96.50
10133;DHT22;5106;50.926;7.080;2023-12-29T00:28:06;10.20;96.50
10133;DHT22;5106;50.926;7.080;2023-12-29T00:30:32;10.20;96.50
10133;DHT22;5106;50.926;7.080;2023-12-29T00:32:58;10.20;96.50
10133;DHT22;5106;50.926;7.080;2023-12-29T00:35:23;10.20;96.50
10133;DHT22;5106;50.926;7.080;2023-12-29T00:37:50;10.20;96.50
10133;DHT22;5106;50.926;7.080;2023-12-29T00:40:16;10.20;96.50
10133;DHT22;5106;50.926;7.080;2023-12-29T00:42:41;10.20;96.50
10133;DHT22;5106;50.926;7.080;2023-12-29T00:45:07;10.30;96.50
10133;DHT22;5106;50.926;7.080;2023-12-29T00:47:35;10.30;96.50
10133;DHT22;5106;50.926;7.080;2023-12-29T00:50:01;10.30;96.50
10133;DHT22;5106;50.926;7.080;2023-12-29T00:52:27;10.30;96.50
10133;DHT22;5106;50.926;7.080;2023-12-29T00:54:53;10.30;96.50
10133;DHT22;5106;50.926;7.080;2023-12-29T00:57:18;10.30;96.50
10133;DHT22;5106;50.926;7.080;2023-12-29T00:59:47;10.30;96.50
10133;DHT22;5106;50.926;7.080;2023-12-29T01:02:12;10.30;96.50
10133;DHT22;5106;50.926;7.080;2023-12-29T01:04:38;10.30;96.50
10133;DHT22;5106;50.926;7.080;2023-12-29T01:07:07;10.30;96.50
10133;DHT22;5106;50.926;7.080;2023-12-29T01:09:36;10.30;96.50
10133;DHT22;5106;50.926;7.080;2023-12-29T01:12:03;10.30;96.50
10133;DHT22;5106;50.926;7.080;2023-12-29T01:14:29;10.30;96.50
10133;DHT22;5106;50.926;7.080;2023-12-29T01:16:55;10.30;96.50
10133;DHT22;5106;50.926;7.080;2023-12-29T01:19:20;10.30;96.50
10133;DHT22;5106;50.926;7.080;2023-12-29T01:21:46;10.30;96.50
10133;DHT22;5106;50.926;7.080;2023-12-29T01:24:11;10.30;96.50
10133;DHT22;5106;50.926;7.080;2023-12-29T01:26:37;10.30;96.50
10133;DHT22;5106;50.926;7.080;2023-12-29T01:29:04;10.30;96.50
10133;DHT22;5106;50.926;7.080;2023-12-29T01:31:30;10.30;96.50
10133;DHT22;5106;50.926;7.080;2023-12-29T01:33:56;10.30;96.50
10133;DHT22;5106;50.926;7.080;2023-12-29T01:36:22;10.30;96.50
10133;DHT22;5106;50.926;7.080;2023-12-29T01:38:47;10.30;96.50
10133;DHT22;5106;50.926;7.080;2023-12-29T01:41:13;10.30;96.50
10133;DHT22;5106;50.926;7.080;2023-12-29T01:46:33;10.30;96.50
10133;DHT22;5106;50.926;7.080;2023-12-29T01:49:00;10.30;96.50
10133;DHT22;5106;50.926;7.080;2023-12-29T01:51:26;10.30;96.50
10133;DHT22;5106;50.926;7.080;2023-12-29T01:53:56;10.30;96.50
10133;DHT22;5106;50.926;7.080;2023-12-29T01:56:23;10.30;96.50
10133;DHT22;5106;50.926;7.080;2023-12-29T01:58:49;10.30;96.50
10133;DHT22;5106;50.926;7.080;2023-12-29T02:01:18;10.30;96.50
10133;DHT22;5106;50.926;7.080;2023-12-29T02:03:44;10.30;96.50
10133;DHT22;5106;50.926;7.080;2023-12-29T02:06:10;10.30;96.50
10133;DHT22;5106;50.926;7.080;2023-12-29T02:08:40;10.30;96.50
10133;DHT22;5106;50.926;7.080;2023-12-29T02:11:06;10.40;96.50
10133;DHT22;5106;50.926;7.080;2023-12-29T02:13:32;10.40;96.50
10133;DHT22;5106;50.926;7.080;2023-12-29T02:19:24;10.40;96.50
10133;DHT22;5106;50.926;7.080;2023-12-29T02:21:50;10.50;96.50
10133;DHT22;5106;50.926;7.080;2023-12-29T02:24:16;10.50;96.50
10133;DHT22;5106;50.926;7.080;2023-12-29T02:26:45;10.50;96.50
10133;DHT22;5106;50.926;7.080;2023-12-29T02:29:14;10.50;96.50
10133;DHT22;5106;50.926;7.080;2023-12-29T02:31:44;10.50;96.50
10133;DHT22;5106;50.926;7.080;2023-12-29T02:34:14;10.50;96.50
10133;DHT22;5106;50.926;7.080;2023-12-29T02:36:40;10.50;96.50
10133;DHT22;5106;50.926;7.080;2023-12-29T02:39:09;10.50;96.50
10133;DHT22;5106;50.926;7.080;2023-12-29T02:41:37;10.60;96.50
10133;DHT22;5106;50.926;7.080;2023-12-29T02:44:03;10.60;96.50
10133;DHT22;5106;50.926;7.080;2023-12-29T02:46:29;10.60;96.50
10133;DHT22;5106;50.926;7.080;2023-12-29T02:48:55;10.60;96.50
10133;DHT22;5106;50.926;7.080;2023-12-29T02:51:20;10.60;96.50
10133;DHT22;5106;50.926;7.080;2023-12-29T02:53:46;10.60;96.50
10133;DHT22;5106;50.926;7.080;2023-12-29T02:56:13;10.60;96.50
10133;DHT22;5106;50.926;7.080;2023-12-29T02:58:38;10.60;96.50
10133;DHT22;5106;50.926;7.080;2023-12-29T03:01:04;10.70;96.50
10133;DHT22;5106;50.926;7.080;2023-12-29T03:03:29;10.70;96.50
10133;DHT22;5106;50.926;7.080;2023-12-29T03:05:55;10.70;96.50
10133;DHT22;5106;50.926;7.080;2023-12-29T03:08:20;10.70;96.50
10133;DHT22;5106;50.926;7.080;2023-12-29T03:10:46;10.70;96.50
10133;DHT22;5106;50.926;7.080;2023-12-29T03:13:12;10.70;96.50
10133;DHT22;5106;50.926;7.080;2023-12-29T03:15:37;10.70;96.50
10133;DHT22;5106;50.926;7.080;2023-12-29T03:18:03;10.70;96.50
10133;DHT22;5106;50.926;7.080;2023-12-29T03:20:28;10.70;96.50
10133;DHT22;5106;50.926;7.080;2023-12-29T03:22:54;10.70;96.50
10133;DHT22;5106;50.926;7.080;2023-12-29T03:25:20;10.70;96.50
10133;DHT22;5106;50.926;7.080;2023-12-29T03:27:46;10.80;96.50
10133;DHT22;5106;50.926;7.080;2023-12-29T03:30:12;10.90;96.50
10133;DHT22;5106;50.926;7.080;2023-12-29T03:32:37;10.90;96.50
10133;DHT22;5106;50.926;7.080;2023-12-29T03:35:03;10.90;96.50
10133;DHT22;5106;50.926;7.080;2023-12-29T03:37:29;11.00;96.50
10133;DHT22;5106;50.926;7.080;2023-12-29T03:39:55;11.00;96.50
10133;DHT22;5106;50.926;7.080;2023-12-29T03:42:20;11.10;96.50
10133;DHT22;5106;50.926;7.080;2023-12-29T03:44:46;11.10;96.50
10133;DHT22;5106;50.926;7.080;2023-12-29T03:47:11;11.10;96.50
10133;DHT22;5106;50.926;7.080;2023-12-29T03:49:37;11.10;96.50
10133;DHT22;5106;50.926;7.080;2023-12-29T03:52:03;11.10;96.50
10133;DHT22;5106;50.926;7.080;2023-12-29T03:54:28;11.10;96.50
10133;DHT22;5106;50.926;7.080;2023-12-29T03:56:54;11.10;96.50
10133;DHT22;5106;50.926;7.080;2023-12-29T03:59:19;11.20;96.50
10133;DHT22;5106;50.926;7.080;2023-12-29T04:01:45;11.20;96.50
10133;DHT22;5106;50.926;7.080;2023-12-29T04:04:11;11.10;96.50
10133;DHT22;5106;50.926;7.080;2023-12-29T04:06:36;11.20;96.50
10133;DHT22;5106;50.926;7.080;2023-12-29T04:09:03;11.20;96.50
10133;DHT22;5106;50.926;7.080;2023-12-29T04:11:28;11.20;96.50
10133;DHT22;5106;50.926;7.080;2023-12-29T04:13:54;11.20;96.50
10133;DHT22;5106;50.926;7.080;2023-12-29T04:16:19;11.20;96.50
10133;DHT22;5106;50.926;7.080;2023-12-29T04:18:45;11.10;96.50
10133;DHT22;5106;50.926;7.080;2023-12-29T04:21:14;11.10;96.50
10133;DHT22;5106;50.926;7.080;2023-12-29T04:23:40;11.20;96.50
10133;DHT22;5106;50.926;7.080;2023-12-29T04:26:07;11.20;96.50
10133;DHT22;5106;50.926;7.080;2023-12-29T04:28:33;11.20;96.50
10133;DHT22;5106;50.926;7.080;2023-12-29T04:30:58;11.20;96.50
10133;DHT22;5106;50.926;7.080;2023-12-29T04:33:24;11.20;96.50
10133;DHT22;5106;50.926;7.080;2023-12-29T04:35:51;11.20;96.50
10133;DHT22;5106;50.926;7.080;2023-12-29T04:38:16;11.20;96.50
10133;DHT22;5106;50.926;7.080;2023-12-29T04:40:45;11.20;96.50
10133;DHT22;5106;50.926;7.080;2023-12-29T04:43:10;11.20;96.50
10133;DHT22;5106;50.926;7.080;2023-12-29T04:45:36;11.10;96.50
10133;DHT22;5106;50.926;7.080;2023-12-29T04:48:02;11.20;96.50
10133;DHT22;5106;50.926;7.080;2023-12-29T04:50:27;11.10;96.50
10133;DHT22;5106;50.926;7.080;2023-12-29T04:52:53;11.10;96.50
10133;DHT22;5106;50.926;7.080;2023-12-29T04:55:18;11.10;96.50
10133;DHT22;5106;50.926;7.080;2023-12-29T04:57:44;11.10;96.50
10133;DHT22;5106;50.926;7.080;2023-12-29T05:00:10;11.10;96.50
10133;DHT22;5106;50.926;7.080;2023-12-29T05:02:36;11.10;96.50
10133;DHT22;5106;50.926;7.080;2023-12-29T05:05:01;11.10;96.50
10133;DHT22;5106;50.926;7.080;2023-12-29T05:07:27;11.10;96.50
10133;DHT22;5106;50.926;7.080;2023-12-29T05:09:52;11.10;96.50
10133;DHT22;5106;50.926;7.080;2023-12-29T05:12:18;11.10;96.50
10133;DHT22;5106;50.926;7.080;2023-12-29T05:14:44;11.10;96.50
10133;DHT22;5106;50.926;7.080;2023-12-29T05:17:09;11.10;96.50
10133;DHT22;5106;50.926;7.080;2023-12-29T05:19:35;11.10;96.50
10133;DHT22;5106;50.926;7.080;2023-12-29T05:22:00;11.10;96.50
10133;DHT22;5106;50.926;7.080;2023-12-29T05:24:26;11.10;96.50
10133;DHT22;5106;50.926;7.080;2023-12-29T05:26:52;11.10;96.50
10133;DHT22;5106;50.926;7.080;2023-12-29T05:29:17;11.20;96.50
10133;DHT22;5106;50.926;7.080;2023-12-29T05:31:43;11.20;96.50
10133;DHT22;5106;50.926;7.080;2023-12-29T05:34:08;11.20;96.50
10133;DHT22;5106;50.926;7.080;2023-12-29T05:36:37;11.20;96.50
10133;DHT22;5106;50.926;7.080;2023-12-29T05:39:03;11.20;96.50
10133;DHT22;5106;50.926;7.080;2023-12-29T05:41:29;11.20;96.50
10133;DHT22;5106;50.926;7.080;2023-12-29T05:43:55;11.20;96.50
10133;DHT22;5106;50.926;7.080;2023-12-29T05:46:22;11.20;96.50
10133;DHT22;5106;50.926;7.080;2023-12-29T05:48:48;11.20;96.50
10133;DHT22;5106;50.926;7.080;2023-12-29T05:51:14;11.20;96.50
10133;DHT22;5106;50.926;7.080;2023-12-29T05:53:40;11.10;96.50
10133;DHT22;5106;50.926;7.080;2023-12-29T05:56:06;11.10;96.50
10133;DHT22;5106;50.926;7.080;2023-12-29T05:58:32;11.10;96.50
10133;DHT22;5106;50.926;7.080;2023-12-29T06:00:57;11.10;96.50
10133;DHT22;5106;50.926;7.080;2023-12-29T06:03:27;11.10;96.50
10133;DHT22;5106;50.926;7.080;2023-12-29T06:05:53;11.10;96.50
10133;DHT22;5106;50.926;7.080;2023-12-29T06:08:19;11.10;96.50
10133;DHT22;5106;50.926;7.080;2023-12-29T06:10:44;11.10;96.50
10133;DHT22;5106;50.926;7.080;2023-12-29T06:13:10;11.10;96.50
10133;DHT22;5106;50.926;7.080;2023-12-29T06:15:35;11.10;96.50
10133;DHT22;5106;50.926;7.080;2023-12-29T06:18:02;11.10;96.50
10133;DHT22;5106;50.926;7.080;2023-12-29T06:20:27;11.10;96.50
10133;DHT22;5106;50.926;7.080;2023-12-29T06:22:53;11.10;96.50
10133;DHT22;5106;50.926;7.080;2023-12-29T06:25:19;11.10;96.50
10133;DHT22;5106;50.926;7.080;2023-12-29T06:27:44;11.10;96.50
10133;DHT22;5106;50.926;7.080;2023-12-29T06:30:10;11.10;96.50
10133;DHT22;5106;50.926;7.080;2023-12-29T06:32:36;11.00;96.50
10133;DHT22;5106;50.926;7.080;2023-12-29T06:35:03;11.00;96.50
10133;DHT22;5106;50.926;7.080;2023-12-29T06:37:28;11.00;96.50
10133;DHT22;5106;50.926;7.080;2023-12-29T06:39:54;11.00;96.50
10133;DHT22;5106;50.926;7.080;2023-12-29T06:42:20;11.00;96.50
10133;DHT22;5106;50.926;7.080;2023-12-29T06:44:46;11.00;96.50
10133;DHT22;5106;50.926;7.080;2023-12-29T06:47:12;11.00;96.50
10133;DHT22;5106;50.926;7.080;2023-12-29T06:49:38;11.00;96.50
10133;DHT22;5106;50.926;7.080;2023-12-29T06:52:04;11.00;96.50
10133;DHT22;5106;50.926;7.080;2023-12-29T06:54:30;11.00;96.50
10133;DHT22;5106;50.926;7.080;2023-12-29T06:56:56;11.00;96.50
10133;DHT22;5106;50.926;7.080;2023-12-29T06:59:22;11.10;96.50
10133;DHT22;5106;50.926;7.080;2023-12-29T07:01:48;11.00;96.50
10133;DHT22;5106;50.926;7.080;2023-12-29T07:04:14;11.00;96.50
10133;DHT22;5106;50.926;7.080;2023-12-29T07:06:41;11.00;96.50
10133;DHT22;5106;50.926;7.080;2023-12-29T07:09:07;10.90;96.50
10133;DHT22;5106;50.926;7.080;2023-12-29T07:11:34;10.90;96.50
10133;DHT22;5106;50.926;7.080;2023-12-29T07:13:59;10.90;96.50
10133;DHT22;5106;50.926;7.080;2023-12-29T07:16:25;10.90;96.50
10133;DHT22;5106;50.926;7.080;2023-12-29T07:18:50;10.80;96.50
10133;DHT22;5106;50.926;7.080;2023-12-29T07:21:17;10.80;96.50
10133;DHT22;5106;50.926;7.080;2023-12-29T07:23:43;10.80;96.50
10133;DHT22;5106;50.926;7.080;2023-12-29T07:26:09;10.80;96.50
10133;DHT22;5106;50.926;7.080;2023-12-29T07:28:34;10.70;96.50
10133;DHT22;5106;50.926;7.080;2023-12-29T07:31:05;10.70;96.50
10133;DHT22;5106;50.926;7.080;2023-12-29T07:33:31;10.70;96.50
10133;DHT22;5106;50.926;7.080;2023-12-29T07:35:57;10.70;96.50
10133;DHT22;5106;50.926;7.080;2023-12-29T07:38:24;10.70;96.50
10133;DHT22;5106;50.926;7.080;2023-12-29T07:40:49;10.60;96.50
10133;DHT22;5106;50.926;7.080;2023-12-29T07:43:15;10.60;96.50
10133;DHT22;5106;50.926;7.080;2023-12-29T07:45:40;10.70;96.50
10133;DHT22;5106;50.926;7.080;2023-12-29T07:48:08;10.60;96.50
10133;DHT22;5106;50.926;7.080;2023-12-29T07:50:34;10.60;96.50
10133;DHT22;5106;50.926;7.080;2023-12-29T07:53:00;10.60;96.50
10133;DHT22;5106;50.926;7.080;2023-12-29T07:55:31;10.60;96.50
10133;DHT22;5106;50.926;7.080;2023-12-29T07:57:56;10.60;96.50
10133;DHT22;5106;50.926;7.080;2023-12-29T08:00:22;10.60;96.50
10133;DHT22;5106;50.926;7.080;2023-12-29T08:02:48;10.60;96.50
10133;DHT22;5106;50.926;7.080;2023-12-29T08:05:14;10.60;96.50
10133;DHT22;5106;50.926;7.080;2023-12-29T08:07:41;10.60;96.50
10133;DHT22;5106;50.926;7.080;2023-12-29T08:10:07;10.60;96.50
10133;DHT22;5106;50.926;7.080;2023-12-29T08:12:33;10.50;96.50
10133;DHT22;5106;50.926;7.080;2023-12-29T08:14:59;10.40;96.50
10133;DHT22;5106;50.926;7.080;2023-12-29T08:17:25;10.40;96.50
10133;DHT22;5106;50.926;7.080;2023-12-29T08:19:51;10.30;96.50
10133;DHT22;5106;50.926;7.080;2023-12-29T08:22:17;10.30;96.50
10133;DHT22;5106;50.926;7.080;2023-12-29T08:24:42;10.20;96.50
10133;DHT22;5106;50.926;7.080;2023-12-29T08:27:14;10.10;96.50
10133;DHT22;5106;50.926;7.080;2023-12-29T08:29:40;10.00;96.50
10133;DHT22;5106;50.926;7.080;2023-12-29T08:32:07;10.00;96.50
10133;DHT22;5106;50.926;7.080;2023-12-29T08:34:32;9.90;96.50
10133;DHT22;5106;50.926;7.080;2023-12-29T08:36:59;9.80;96.50
10133;DHT22;5106;50.926;7.080;2023-12-29T08:39:25;9.80;96.50
10133;DHT22;5106;50.926;7.080;2023-12-29T08:41:51;9.70;96.50
10133;DHT22;5106;50.926;7.080;2023-12-29T08:44:16;9.70;96.50
10133;DHT22;5106;50.926;7.080;2023-12-29T08:46:42;9.60;96.50
10133;DHT22;5106;50.926;7.080;2023-12-29T08:49:08;9.60;96.50
10133;DHT22;5106;50.926;7.080;2023-12-29T08:51:33;9.60;96.50
10133;DHT22;5106;50.926;7.080;2023-12-29T08:53:59;9.50;96.50
10133;DHT22;5106;50.926;7.080;2023-12-29T08:56:25;9.50;96.50
10133;DHT22;5106;50.926;7.080;2023-12-29T08:58:51;9.50;96.50
10133;DHT22;5106;50.926;7.080;2023-12-29T09:01:16;9.50;96.50
10133;DHT22;5106;50.926;7.080;2023-12-29T09:03:42;9.50;96.50
10133;DHT22;5106;50.926;7.080;2023-12-29T09:06:08;9.50;96.50
10133;DHT22;5106;50.926;7.080;2023-12-29T09:08:34;9.40;96.50
10133;DHT22;5106;50.926;7.080;2023-12-29T09:11:00;9.50;96.50
10133;DHT22;5106;50.926;7.080;2023-12-29T09:13:26;9.40;96.50
10133;DHT22;5106;50.926;7.080;2023-12-29T09:15:54;9.40;96.50
10133;DHT22;5106;50.926;7.080;2023-12-29T09:18:19;9.50;96.50
10133;DHT22;5106;50.926;7.080;2023-12-29T09:20:45;9.50;96.50
10133;DHT22;5106;50.926;7.080;2023-12-29T09:23:10;9.50;96.50
10133;DHT22;5106;50.926;7.080;2023-12-29T09:25:36;9.50;96.50
10133;DHT22;5106;50.926;7.080;2023-12-29T09:28:02;9.50;96.50
10133;DHT22;5106;50.926;7.080;2023-12-29T09:30:28;9.60;96.50
10133;DHT22;5106;50.926;7.080;2023-12-29T09:32:54;9.60;96.50
10133;DHT22;5106;50.926;7.080;2023-12-29T09:35:19;9.70;96.50
10133;DHT22;5106;50.926;7.080;2023-12-29T09:37:47;9.70;96.50
10133;DHT22;5106;50.926;7.080;2023-12-29T09:40:14;9.70;96.50
10133;DHT22;5106;50.926;7.080;2023-12-29T09:42:40;9.80;96.50
10133;DHT22;5106;50.926;7.080;2023-12-29T09:45:10;9.80;96.50
10133;DHT22;5106;50.926;7.080;2023-12-29T09:47:39;9.80;96.50
10133;DHT22;5106;50.926;7.080;2023-12-29T09:50:07;9.80;96.50
10133;DHT22;5106;50.926;7.080;2023-12-29T09:52:34;9.90;96.50
10133;DHT22;5106;50.926;7.080;2023-12-29T09:55:00;9.90;96.50
10133;DHT22;5106;50.926;7.080;2023-12-29T09:57:26;9.90;96.50
10133;DHT22;5106;50.926;7.080;2023-12-29T09:59:53;9.90;96.50
10133;DHT22;5106;50.926;7.080;2023-12-29T10:02:20;9.90;96.50
10133;DHT22;5106;50.926;7.080;2023-12-29T10:04:47;9.90;96.50
10133;DHT22;5106;50.926;7.080;2023-12-29T10:07:26;10.00;96.50
10133;DHT22;5106;50.926;7.080;2023-12-29T10:09:55;10.00;96.50
10133;DHT22;5106;50.926;7.080;2023-12-29T10:12:22;10.00;96.50
10133;DHT22;5106;50.926;7.080;2023-12-29T10:15:14;10.00;96.50
10133;DHT22;5106;50.926;7.080;2023-12-29T10:20:59;10.10;96.50
10133;DHT22;5106;50.926;7.080;2023-12-29T10:23:50;10.20;96.50
10133;DHT22;5106;50.926;7.080;2023-12-29T10:26:17;10.20;96.50
10133;DHT22;5106;50.926;7.080;2023-12-29T10:28:46;10.30;96.50
10133;DHT22;5106;50.926;7.080;2023-12-29T10:31:15;10.30;96.50
10133;DHT22;5106;50.926;7.080;2023-12-29T10:33:41;10.40;96.50
10133;DHT22;5106;50.926;7.080;2023-12-29T10:36:07;10.40;96.50
10133;DHT22;5106;50.926;7.080;2023-12-29T10:38:34;10.40;96.50
10133;DHT22;5106;50.926;7.080;2023-12-29T10:41:18;10.40;96.50
10133;DHT22;5106;50.926;7.080;2023-12-29T10:43:46;10.50;96.50
10133;DHT22;5106;50.926;7.080;2023-12-29T10:46:18;10.50;96.50
10133;DHT22;5106;50.926;7.080;2023-12-29T10:48:43;10.50;96.50
10133;DHT22;5106;50.926;7.080;2023-12-29T10:51:10;10.60;96.50
10133;DHT22;5106;50.926;7.080;2023-12-29T10:53:36;10.60;96.50
10133;DHT22;5106;50.926;7.080;2023-12-29T10:56:02;10.60;96.50
10133;DHT22;5106;50.926;7.080;2023-12-29T10:58:29;10.60;96.50
10133;DHT22;5106;50.926;7.080;2023-12-29T11:01:01;10.60;96.50
10133;DHT22;5106;50.926;7.080;2023-12-29T11:03:26;10.70;96.50
10133;DHT22;5106;50.926;7.080;2023-12-29T11:05:59;10.80;96.50
10133;DHT22;5106;50.926;7.080;2023-12-29T11:08:27;10.90;96.50
10133;DHT22;5106;50.926;7.080;2023-12-29T11:10:54;10.90;96.50
10133;DHT22;5106;50.926;7.080;2023-12-29T11:13:20;10.90;96.50
10133;DHT22;5106;50.926;7.080;2023-12-29T11:15:47;10.90;96.50
10133;DHT22;5106;50.926;7.080;2023-12-29T11:18:14;10.90;96.50
10133;DHT22;5106;50.926;7.080;2023-12-29T11:20:41;11.00;96.50
10133;DHT22;5106;50.926;7.080;2023-12-29T11:23:09;11.00;96.50
10133;DHT22;5106;50.926;7.080;2023-12-29T11:25:34;11.00;96.50
10133;DHT22;5106;50.926;7.080;2023-12-29T11:28:00;11.10;96.50
10133;DHT22;5106;50.926;7.080;2023-12-29T11:30:26;11.10;96.50
10133;DHT22;5106;50.926;7.080;2023-12-29T11:33:02;11.20;96.50
10133;DHT22;5106;50.926;7.080;2023-12-29T11:35:31;11.20;96.50
10133;DHT22;5106;50.926;7.080;2023-12-29T11:41:09;11.30;96.50
10133;DHT22;5106;50.926;7.080;2023-12-29T11:43:35;11.40;96.50
10133;DHT22;5106;50.926;7.080;2023-12-29T11:46:01;11.40;96.50
10133;DHT22;5106;50.926;7.080;2023-12-29T11:48:55;11.40;96.50
10133;DHT22;5106;50.926;7.080;2023-12-29T11:51:44;11.50;96.50
10133;DHT22;5106;50.926;7.080;2023-12-29T11:54:10;11.50;96.50
10133;DHT22;5106;50.926;7.080;2023-12-29T11:59:22;11.50;96.50
10133;DHT22;5106;50.926;7.080;2023-12-29T12:01:58;11.60;96.50
10133;DHT22;5106;50.926;7.080;2023-12-29T12:04:44;11.60;96.50
10133;DHT22;5106;50.926;7.080;2023-12-29T12:07:17;11.60;96.50
10133;DHT22;5106;50.926;7.080;2023-12-29T12:09:43;11.60;96.50
10133;DHT22;5106;50.926;7.080;2023-12-29T12:12:10;11.60;96.50
10133;DHT22;5106;50.926;7.080;2023-12-29T12:17:33;11.60;96.50
10133;DHT22;5106;50.926;7.080;2023-12-29T12:20:06;11.60;96.50
10133;DHT22;5106;50.926;7.080;2023-12-29T12:22:35;11.60;96.50
10133;DHT22;5106;50.926;7.080;2023-12-29T12:25:02;11.70;96.50
10133;DHT22;5106;50.926;7.080;2023-12-29T12:27:30;11.70;96.50
10133;DHT22;5106;50.926;7.080;2023-12-29T12:29:58;11.70;96.50
10133;DHT22;5106;50.926;7.080;2023-12-29T12:32:28;11.70;96.50
10133;DHT22;5106;50.926;7.080;2023-12-29T12:34:54;11.70;96.50
10133;DHT22;5106;50.926;7.080;2023-12-29T12:39:46;11.70;96.50
10133;DHT22;5106;50.926;7.080;2023-12-29T12:42:13;11.70;96.50
10133;DHT22;5106;50.926;7.080;2023-12-29T12:44:41;11.70;96.50
10133;DHT22;5106;50.926;7.080;2023-12-29T12:47:10;11.70;96.50
10133;DHT22;5106;50.926;7.080;2023-12-29T12:49:39;11.70;96.50
10133;DHT22;5106;50.926;7.080;2023-12-29T12:52:05;11.60;96.50
10133;DHT22;5106;50.926;7.080;2023-12-29T12:54:31;11.50;96.50
10133;DHT22;5106;50.926;7.080;2023-12-29T12:56:57;11.40;96.50
10133;DHT22;5106;50.926;7.080;2023-12-29T12:59:23;11.40;96.50
10133;DHT22;5106;50.926;7.080;2023-12-29T13:01:49;11.40;96.50
10133;DHT22;5106;50.926;7.080;2023-12-29T13:04:15;11.40;96.50
10133;DHT22;5106;50.926;7.080;2023-12-29T13:06:42;11.40;96.50
10133;DHT22;5106;50.926;7.080;2023-12-29T13:09:11;11.40;96.50
10133;DHT22;5106;50.926;7.080;2023-12-29T13:11:38;11.40;96.50
10133;DHT22;5106;50.926;7.080;2023-12-29T13:14:06;11.50;96.50
10133;DHT22;5106;50.926;7.080;2023-12-29T13:16:33;11.50;96.50
10133;DHT22;5106;50.926;7.080;2023-12-29T13:19:23;11.60;96.50
10133;DHT22;5106;50.926;7.080;2023-12-29T13:21:53;11.60;96.50
10133;DHT22;5106;50.926;7.080;2023-12-29T13:24:21;11.60;96.50
10133;DHT22;5106;50.926;7.080;2023-12-29T13:26:47;11.60;96.50
10133;DHT22;5106;50.926;7.080;2023-12-29T13:29:18;11.60;96.50
10133;DHT22;5106;50.926;7.080;2023-12-29T13:31:47;11.70;96.50
10133;DHT22;5106;50.926;7.080;2023-12-29T13:34:21;11.70;96.50
10133;DHT22;5106;50.926;7.080;2023-12-29T13:37:02;11.70;96.50
10133;DHT22;5106;50.926;7.080;2023-12-29T13:39:35;11.70;96.50
10133;DHT22;5106;50.926;7.080;2023-12-29T13:42:04;11.70;96.50
10133;DHT22;5106;50.926;7.080;2023-12-29T13:44:31;11.70;96.50
10133;DHT22;5106;50.926;7.080;2023-12-29T13:46:57;11.70;96.50
10133;DHT22;5106;50.926;7.080;2023-12-29T13:49:23;11.70;96.50
10133;DHT22;5106;50.926;7.080;2023-12-29T13:51:49;11.70;96.50
10133;DHT22;5106;50.926;7.080;2023-12-29T13:54:14;11.70;96.50
10133;DHT22;5106;50.926;7.080;2023-12-29T13:56:51;11.70;96.50
10133;DHT22;5106;50.926;7.080;2023-12-29T13:59:17;11.70;96.50
10133;DHT22;5106;50.926;7.080;2023-12-29T14:01:42;11.70;96.50
10133;DHT22;5106;50.926;7.080;2023-12-29T14:04:11;11.70;96.50
10133;DHT22;5106;50.926;7.080;2023-12-29T14:06:49;11.70;96.50
10133;DHT22;5106;50.926;7.080;2023-12-29T14:09:18;11.70;96.50
10133;DHT22;5106;50.926;7.080;2023-12-29T14:11:48;11.70;96.50
10133;DHT22;5106;50.926;7.080;2023-12-29T14:14:14;11.60;96.50
10133;DHT22;5106;50.926;7.080;2023-12-29T14:16:46;11.50;96.50
10133;DHT22;5106;50.926;7.080;2023-12-29T14:19:12;11.30;96.50
10133;DHT22;5106;50.926;7.080;2023-12-29T14:21:38;11.10;96.50
10133;DHT22;5106;50.926;7.080;2023-12-29T14:24:13;11.00;96.50
10133;DHT22;5106;50.926;7.080;2023-12-29T14:27:00;10.80;96.50
10133;DHT22;5106;50.926;7.080;2023-12-29T14:29:28;10.70;96.50
10133;DHT22;5106;50.926;7.080;2023-12-29T14:31:53;10.70;96.50
10133;DHT22;5106;50.926;7.080;2023-12-29T14:34:22;10.60;96.50
10133;DHT22;5106;50.926;7.080;2023-12-29T14:36:47;10.50;96.50
10133;DHT22;5106;50.926;7.080;2023-12-29T14:39:13;10.40;96.50
10133;DHT22;5106;50.926;7.080;2023-12-29T14:41:41;10.40;96.50
10133;DHT22;5106;50.926;7.080;2023-12-29T14:44:07;10.30;96.50
10133;DHT22;5106;50.926;7.080;2023-12-29T14:46:32;10.30;96.50
10133;DHT22;5106;50.926;7.080;2023-12-29T14:48:59;10.30;96.50
10133;DHT22;5106;50.926;7.080;2023-12-29T14:51:25;10.30;96.50
10133;DHT22;5106;50.926;7.080;2023-12-29T14:53:51;10.30;96.50
10133;DHT22;5106;50.926;7.080;2023-12-29T14:56:17;10.30;96.50
10133;DHT22;5106;50.926;7.080;2023-12-29T14:58:43;10.30;96.50
10133;DHT22;5106;50.926;7.080;2023-12-29T15:01:09;10.20;96.50
10133;DHT22;5106;50.926;7.080;2023-12-29T15:03:35;10.30;96.50
10133;DHT22;5106;50.926;7.080;2023-12-29T15:06:01;10.30;96.50
10133;DHT22;5106;50.926;7.080;2023-12-29T15:08:28;10.20;96.50
10133;DHT22;5106;50.926;7.080;2023-12-29T15:11:03;10.30;96.50
10133;DHT22;5106;50.926;7.080;2023-12-29T15:13:29;10.20;96.50
10133;DHT22;5106;50.926;7.080;2023-12-29T15:15:56;10.20;96.50
10133;DHT22;5106;50.926;7.080;2023-12-29T15:18:22;10.30;96.50
10133;DHT22;5106;50.926;7.080;2023-12-29T15:20:48;10.30;96.50
10133;DHT22;5106;50.926;7.080;2023-12-29T15:23:14;10.30;96.50
10133;DHT22;5106;50.926;7.080;2023-12-29T15:25:39;10.30;96.50
10133;DHT22;5106;50.926;7.080;2023-12-29T15:28:07;10.30;96.50
10133;DHT22;5106;50.926;7.080;2023-12-29T15:30:33;10.40;96.50
10133;DHT22;5106;50.926;7.080;2023-12-29T15:32:59;10.30;96.50
10133;DHT22;5106;50.926;7.080;2023-12-29T15:35:24;10.40;96.50
10133;DHT22;5106;50.926;7.080;2023-12-29T15:37:50;10.40;96.50
10133;DHT22;5106;50.926;7.080;2023-12-29T15:40:15;10.40;96.50
10133;DHT22;5106;50.926;7.080;2023-12-29T15:42:41;10.40;96.50
10133;DHT22;5106;50.926;7.080;2023-12-29T15:45:07;10.50;96.50
10133;DHT22;5106;50.926;7.080;2023-12-29T15:47:32;10.40;96.50
10133;DHT22;5106;50.926;7.080;2023-12-29T15:49:58;10.30;96.50
10133;DHT22;5106;50.926;7.080;2023-12-29T15:52:23;10.30;96.50
10133;DHT22;5106;50.926;7.080;2023-12-29T15:54:52;10.20;96.50
10133;DHT22;5106;50.926;7.080;2023-12-29T15:57:17;10.20;96.50
10133;DHT22;5106;50.926;7.080;2023-12-29T15:59:43;10.20;96.50
10133;DHT22;5106;50.926;7.080;2023-12-29T16:02:10;10.10;96.50
10133;DHT22;5106;50.926;7.080;2023-12-29T16:04:36;10.10;96.50
10133;DHT22;5106;50.926;7.080;2023-12-29T16:07:02;10.10;96.50